Terminal Aerodrome Forecast
Issued by NWS

Home | Current Version | Previous Version | Text Only | Print | Product List | Glossary On
Versions: 1 2 3 4 5 6 7 8 9 10 11 12 13 14 15 16 17
882
FTUS41 KBGM 261132
TAFELM
TAF
KELM 261132Z 2612/2712 VRB03KT 1SM BR VV003
      TEMPO 2612/2614 4SM BR FEW003
     FM261400 22004KT P6SM FEW060 SCT200
     FM270600 00000KT 2SM BR FEW003
     FM270800 00000KT 1/2SM FG VV003=

USA.gov is the U.S. government's official web portal to all federal, state and local government web resources and services.